createdAt,value
2018-03-03T00:02:25.694Z,166.23
2018-03-03T00:04:52.101Z,163.02
2018-03-03T00:07:18.526Z,170.23
2018-03-03T00:09:44.940Z,146.80
2018-03-03T00:12:11.336Z,168.50
2018-03-03T00:14:37.758Z,174.52
2018-03-03T00:17:04.206Z,169.68
2018-03-03T00:19:30.589Z,173.60
2018-03-03T00:21:56.988Z,144.52
2018-03-03T00:24:23.378Z,160.65
2018-03-03T00:26:50.539Z,138.37
2018-03-03T00:29:17.657Z,171.55
2018-03-03T00:31:44.640Z,156.18
2018-03-03T00:34:11.022Z,155.73
2018-03-03T00:36:37.421Z,159.82
2018-03-03T00:39:03.934Z,149.75
2018-03-03T00:41:30.333Z,150.85
2018-03-03T00:43:56.697Z,160.40
2018-03-03T00:46:23.066Z,158.48
2018-03-03T00:48:49.442Z,148.98
2018-03-03T00:51:15.820Z,159.52
2018-03-03T00:53:42.222Z,161.48
2018-03-03T00:56:08.608Z,170.50
2018-03-03T00:58:35.033Z,156.73
2018-03-03T01:01:02.402Z,184.63
2018-03-03T01:03:28.781Z,141.90
2018-03-03T01:05:55.186Z,169.10
2018-03-03T01:08:22.334Z,175.75
2018-03-03T01:10:49.483Z,161.12
2018-03-03T01:13:16.589Z,181.68
2018-03-03T01:15:43.001Z,173.35
2018-03-03T01:18:10.091Z,149.70
2018-03-03T01:20:36.505Z,164.20
2018-03-03T01:23:02.873Z,161.88
2018-03-03T01:25:29.274Z,154.87
2018-03-03T01:27:55.683Z,166.23
2018-03-03T01:30:22.077Z,164.52
2018-03-03T01:32:48.486Z,167.13
2018-03-03T01:35:15.739Z,174.93
2018-03-03T01:37:42.908Z,174.68
2018-03-03T01:40:09.285Z,162.70
2018-03-03T01:42:35.735Z,160.30
2018-03-03T01:45:02.117Z,165.73
2018-03-03T01:47:28.566Z,153.23
2018-03-03T01:49:54.966Z,167.18
2018-03-03T01:52:21.425Z,151.30
2018-03-03T01:54:47.793Z,195.43
2018-03-03T01:57:14.161Z,169.45
2018-03-03T01:59:40.540Z,153.62
2018-03-03T02:02:06.909Z,157.60
2018-03-03T02:04:33.320Z,152.77
2018-03-03T02:06:59.702Z,194.48
2018-03-03T02:09:26.063Z,146.70
2018-03-03T02:11:52.427Z,216.23
2018-03-03T02:14:19.513Z,190.60
2018-03-03T02:16:45.987Z,186.00
2018-03-03T02:19:12.442Z,170.82
2018-03-03T02:21:39.616Z,176.73
2018-03-03T02:24:06.021Z,166.25
2018-03-03T02:26:33.154Z,171.77
2018-03-03T02:28:59.510Z,184.85
2018-03-03T02:31:25.920Z,154.23
2018-03-03T02:33:53.031Z,173.75
2018-03-03T02:36:19.497Z,204.38
2018-03-03T02:38:46.612Z,140.62
2018-03-03T02:41:13.076Z,156.23
2018-03-03T02:43:40.215Z,179.48
2018-03-03T02:46:06.579Z,165.95
2018-03-03T02:48:32.958Z,193.40
2018-03-03T02:50:59.345Z,157.10
2018-03-03T02:53:25.690Z,145.87
2018-03-03T02:55:52.045Z,174.82
2018-03-03T02:58:18.400Z,176.52
2018-03-03T03:00:45.572Z,169.35
2018-03-03T03:03:11.972Z,153.48
2018-03-03T03:05:39.158Z,147.43
2018-03-03T03:08:05.573Z,160.30
2018-03-03T03:10:31.972Z,165.32
2018-03-03T03:12:58.355Z,153.52
2018-03-03T03:15:24.728Z,176.48
2018-03-03T03:17:51.088Z,178.40
2018-03-03T03:20:18.217Z,160.75
2018-03-03T03:22:44.586Z,153.95
2018-03-03T03:25:10.955Z,158.63
2018-03-03T03:27:37.367Z,177.12
2018-03-03T03:30:03.731Z,162.50
2018-03-03T03:32:30.105Z,187.52
2018-03-03T03:34:56.521Z,204.57
2018-03-03T03:37:23.626Z,152.32
2018-03-03T03:39:50.004Z,161.43
2018-03-03T03:42:16.377Z,163.50
2018-03-03T03:44:42.762Z,159.32
2018-03-03T03:47:09.179Z,174.18
2018-03-03T03:49:35.559Z,169.95
2018-03-03T03:52:01.958Z,176.50
2018-03-03T03:54:29.052Z,164.77
2018-03-03T03:56:55.427Z,171.77
2018-03-03T03:59:21.921Z,163.65
2018-03-03T04:01:48.298Z,161.88
2018-03-03T04:04:15.413Z,172.30
2018-03-03T04:06:41.814Z,176.75
2018-03-03T04:09:08.225Z,182.12
2018-03-03T04:11:34.650Z,159.43
2018-03-03T04:14:01.035Z,162.07
2018-03-03T04:16:27.441Z,160.02
2018-03-03T04:18:53.854Z,180.68
2018-03-03T04:21:20.234Z,163.02
2018-03-03T04:23:46.661Z,192.50
2018-03-03T04:26:13.076Z,162.30
2018-03-03T04:28:39.550Z,143.70
2018-03-03T04:31:06.699Z,189.32
2018-03-03T04:33:33.877Z,164.90
2018-03-03T04:36:00.322Z,188.30
2018-03-03T04:38:26.770Z,179.93
2018-03-03T04:40:53.176Z,166.40
2018-03-03T04:43:19.534Z,147.70
2018-03-03T04:45:45.938Z,160.07
2018-03-03T04:48:12.320Z,200.10
2018-03-03T04:50:38.761Z,177.93
2018-03-03T04:53:05.932Z,189.43
2018-03-03T04:55:32.306Z,171.20
2018-03-03T04:57:58.740Z,156.12
2018-03-03T05:03:30.063Z,171.30
2018-03-03T05:06:02.399Z,162.43
2018-03-03T05:08:32.428Z,143.18
2018-03-03T05:10:58.829Z,155.87
2018-03-03T05:13:26.221Z,174.85
2018-03-03T05:18:59.800Z,162.43
2018-03-03T05:21:32.277Z,157.37
2018-03-03T05:27:05.977Z,173.02
2018-03-03T05:29:38.460Z,157.18
2018-03-03T05:35:13.603Z,185.68
2018-03-03T05:37:45.921Z,187.95
2018-03-03T05:40:19.174Z,153.07
2018-03-03T05:46:06.327Z,173.02
2018-03-03T05:51:50.755Z,154.00
2018-03-03T05:54:34.994Z,166.43
2018-03-03T05:57:02.222Z,165.40
2018-03-03T05:59:32.169Z,164.85
2018-03-03T06:02:04.641Z,158.77
2018-03-03T06:04:31.921Z,158.27
2018-03-03T06:07:05.217Z,180.25
2018-03-03T06:09:34.518Z,156.93
2018-03-03T06:12:00.932Z,168.30
2018-03-03T06:14:27.978Z,183.93
2018-03-03T06:16:54.389Z,173.62
2018-03-03T06:19:21.021Z,178.70
2018-03-03T06:21:47.397Z,147.52
2018-03-03T06:24:14.570Z,167.00
2018-03-03T06:26:41.654Z,180.10
2018-03-03T06:29:08.041Z,146.35
2018-03-03T06:31:34.403Z,181.35
2018-03-03T06:34:00.786Z,187.95
2018-03-03T06:36:27.192Z,171.87
2018-03-03T06:38:53.542Z,171.85
2018-03-03T06:41:19.978Z,164.70
2018-03-03T06:43:46.355Z,171.82
2018-03-03T06:46:12.820Z,158.98
2018-03-03T06:48:46.309Z,141.73
2018-03-03T06:51:12.740Z,171.50
2018-03-03T06:53:39.087Z,157.45
2018-03-03T06:56:05.455Z,157.12
2018-03-03T06:58:32.588Z,160.07
2018-03-03T07:00:58.952Z,169.95
2018-03-03T07:03:25.349Z,188.05
2018-03-03T07:05:51.706Z,185.20
2018-03-03T07:08:18.905Z,154.20
2018-03-03T07:10:45.250Z,174.57
2018-03-03T07:13:11.678Z,125.50
2018-03-03T07:15:38.112Z,147.80
2018-03-03T07:18:04.502Z,133.75
2018-03-03T07:20:30.873Z,173.43
2018-03-03T07:22:57.241Z,150.20
2018-03-03T07:25:23.660Z,139.93
2018-03-03T07:27:50.782Z,156.95
2018-03-03T07:30:17.939Z,153.45
2018-03-03T07:32:44.323Z,136.15
2018-03-03T07:35:10.763Z,148.80
2018-03-03T07:37:37.235Z,134.00
2018-03-03T07:40:03.603Z,167.95
2018-03-03T07:42:29.992Z,135.50
2018-03-03T07:44:56.366Z,142.93
2018-03-03T07:47:22.738Z,144.62
2018-03-03T07:49:49.202Z,144.55
2018-03-03T07:52:16.319Z,155.93
2018-03-03T07:54:42.745Z,158.43
2018-03-03T07:57:11.077Z,111.15
2018-03-03T07:59:37.493Z,115.43
2018-03-03T08:02:04.669Z,134.98
2018-03-03T08:04:31.106Z,135.00
2018-03-03T08:06:57.646Z,154.65
2018-03-03T08:09:24.930Z,134.52
2018-03-03T08:11:51.322Z,113.85
2018-03-03T08:14:17.674Z,131.18
2018-03-03T08:16:44.054Z,154.52
2018-03-03T08:19:11.153Z,130.07
2018-03-03T08:21:37.537Z,142.10
2018-03-03T08:24:03.966Z,152.50
2018-03-03T08:26:30.334Z,146.85
2018-03-03T08:28:57.483Z,143.40
2018-03-03T08:31:23.907Z,140.77
2018-03-03T08:33:50.322Z,143.77
2018-03-03T08:36:16.710Z,133.25
2018-03-03T08:38:43.146Z,145.98
2018-03-03T08:41:10.297Z,165.00
2018-03-03T08:43:36.646Z,134.05
2018-03-03T08:46:03.813Z,150.18
2018-03-03T08:48:30.233Z,148.85
2018-03-03T08:50:56.641Z,152.43
2018-03-03T08:53:23.794Z,143.65
2018-03-03T08:55:50.901Z,145.32
2018-03-03T08:58:17.327Z,143.70
2018-03-03T09:00:44.466Z,144.40
2018-03-03T09:03:10.832Z,154.10
2018-03-03T09:05:37.205Z,133.52
2018-03-03T09:08:03.590Z,129.70
2018-03-03T09:10:30.025Z,121.93
2018-03-03T09:12:56.424Z,150.18
2018-03-03T09:15:22.855Z,122.43
2018-03-03T09:17:49.252Z,105.90
2018-03-03T09:20:15.660Z,135.25
2018-03-03T09:22:42.811Z,114.07
2018-03-03T09:25:09.947Z,135.45
2018-03-03T09:27:37.097Z,140.48
2018-03-03T09:30:04.259Z,139.75
2018-03-03T09:32:31.366Z,139.45
2018-03-03T09:34:57.784Z,117.80
2018-03-03T09:37:24.210Z,138.73
2018-03-03T09:39:50.671Z,137.90
2018-03-03T09:42:17.086Z,137.95
2018-03-03T09:44:43.518Z,114.00
2018-03-03T09:47:09.912Z,136.45
2018-03-03T09:49:36.327Z,124.78
2018-03-03T09:52:03.472Z,126.87
2018-03-03T09:54:30.615Z,118.72
2018-03-03T09:56:57.746Z,137.05
2018-03-03T09:59:24.086Z,125.38
2018-03-03T10:01:52.333Z,117.05
2018-03-03T10:04:16.937Z,133.23
2018-03-03T10:06:43.308Z,129.95
2018-03-03T10:09:09.715Z,129.00
2018-03-03T10:11:36.138Z,166.32
2018-03-03T10:14:02.542Z,119.47
2018-03-03T10:16:28.962Z,147.62
2018-03-03T10:18:55.353Z,152.00
2018-03-03T10:21:22.505Z,105.12
2018-03-03T10:23:49.662Z,116.32
2018-03-03T10:26:16.127Z,131.25
2018-03-03T10:28:42.536Z,120.15
2018-03-03T10:31:09.797Z,127.15
2018-03-03T10:33:36.161Z,127.07
2018-03-03T10:36:02.586Z,110.12
2018-03-03T10:38:35.918Z,112.20
2018-03-03T10:41:03.098Z,117.90
2018-03-03T10:43:29.495Z,120.68
2018-03-03T10:45:56.674Z,116.75
2018-03-03T10:48:23.062Z,126.62
2018-03-03T10:50:49.506Z,89.03
2018-03-03T10:53:15.865Z,128.02
2018-03-03T10:55:42.305Z,114.90
2018-03-03T10:58:08.698Z,119.47
2018-03-03T11:00:35.828Z,112.82
2018-03-03T11:03:02.248Z,101.30
2018-03-03T11:05:28.695Z,110.80
2018-03-03T11:07:55.078Z,88.18
2018-03-03T11:10:21.458Z,106.28
2018-03-03T11:12:47.877Z,107.78
2018-03-03T11:15:14.299Z,71.80
2018-03-03T11:17:40.701Z,82.25
2018-03-03T11:20:07.697Z,87.85
2018-03-03T11:22:34.098Z,87.85
2018-03-03T11:25:00.530Z,92.32
2018-03-03T11:27:26.937Z,85.00
2018-03-03T11:29:53.438Z,76.65
2018-03-03T11:32:20.666Z,66.65
2018-03-03T11:34:47.222Z,73.30
2018-03-03T11:37:14.403Z,77.57
2018-03-03T11:39:41.642Z,80.62
2018-03-03T11:42:08.107Z,91.07
2018-03-03T11:44:34.574Z,77.35
2018-03-03T11:47:01.735Z,87.68
2018-03-03T11:49:28.882Z,90.12
2018-03-03T11:51:56.969Z,76.40
2018-03-03T11:54:23.427Z,71.72
2018-03-03T11:56:49.910Z,80.93
2018-03-03T11:59:17.044Z,79.03
2018-03-03T12:01:43.425Z,79.53
2018-03-03T12:04:09.845Z,72.32
2018-03-03T12:06:36.272Z,77.65
2018-03-03T12:09:02.720Z,53.13
2018-03-03T12:11:29.203Z,57.25
2018-03-03T12:13:55.677Z,51.95
2018-03-03T12:16:22.083Z,63.42
2018-03-03T12:18:49.258Z,48.40
2018-03-03T12:21:15.703Z,46.37
2018-03-03T12:23:42.086Z,48.55
2018-03-03T12:26:08.465Z,39.17
2018-03-03T12:28:34.845Z,41.28
2018-03-03T12:31:01.257Z,39.72
2018-03-03T12:33:27.688Z,39.85
2018-03-03T12:35:54.299Z,48.10
2018-03-03T12:38:20.691Z,38.55
2018-03-03T12:40:47.137Z,49.05
2018-03-03T12:43:13.554Z,40.33
2018-03-03T12:45:40.788Z,38.22
2018-03-03T12:48:07.969Z,31.75
2018-03-03T12:50:34.374Z,30.52
2018-03-03T12:53:00.795Z,40.72
2018-03-03T12:55:27.240Z,32.00
2018-03-03T12:57:54.421Z,24.85
2018-03-03T13:00:20.855Z,40.55
2018-03-03T13:02:47.283Z,31.23
2018-03-03T13:05:13.672Z,21.08
2018-03-03T13:07:40.110Z,29.52
2018-03-03T13:10:07.294Z,30.62
2018-03-03T13:12:33.718Z,21.90
2018-03-03T13:15:00.889Z,37.03
2018-03-03T13:17:27.355Z,24.40
2018-03-03T13:19:53.782Z,22.95
2018-03-03T13:22:20.173Z,34.15
2018-03-03T13:24:46.616Z,25.33
2018-03-03T13:27:12.976Z,23.25
2018-03-03T13:29:39.342Z,24.42
2018-03-03T13:32:06.045Z,27.70
2018-03-03T13:34:32.438Z,26.10
2018-03-03T13:36:58.830Z,21.73
2018-03-03T13:39:25.973Z,21.75
2018-03-03T13:41:52.412Z,24.23
2018-03-03T13:44:19.554Z,22.75
2018-03-03T13:46:45.951Z,26.30
2018-03-03T13:49:12.372Z,24.23
2018-03-03T13:51:38.772Z,22.02
2018-03-03T13:54:05.899Z,22.95
2018-03-03T13:56:32.360Z,24.87
2018-03-03T13:58:58.777Z,22.85
2018-03-03T14:01:25.160Z,21.10
2018-03-03T14:03:51.546Z,21.87
2018-03-03T14:06:17.961Z,23.83
2018-03-03T14:08:45.146Z,25.05
2018-03-03T14:11:11.552Z,29.20
2018-03-03T14:13:37.946Z,30.08
2018-03-03T14:16:05.094Z,35.03
2018-03-03T14:18:31.555Z,27.80
2018-03-03T14:20:58.655Z,24.70
2018-03-03T14:23:25.060Z,19.23
2018-03-03T14:25:51.468Z,18.42
2018-03-03T14:28:17.853Z,24.10
2018-03-03T14:30:44.256Z,20.37
2018-03-03T14:33:10.667Z,22.85
2018-03-03T14:35:37.099Z,32.60
2018-03-03T14:38:03.547Z,26.02
2018-03-03T14:40:29.975Z,25.77
2018-03-03T14:42:56.362Z,22.60
2018-03-03T14:45:23.551Z,34.95
2018-03-03T14:47:49.951Z,20.60
2018-03-03T14:50:17.122Z,28.92
2018-03-03T14:52:43.536Z,27.20
2018-03-03T14:55:10.687Z,36.17
2018-03-03T14:57:37.125Z,24.08
2018-03-03T15:00:05.291Z,25.42
2018-03-03T15:02:32.403Z,21.25
2018-03-03T15:04:58.790Z,19.02
2018-03-03T15:07:25.170Z,22.25
2018-03-03T15:09:51.555Z,25.20
2018-03-03T15:12:17.998Z,22.95
2018-03-03T15:14:44.507Z,24.10
2018-03-03T15:17:11.609Z,18.92
2018-03-03T15:19:38.083Z,18.20
2018-03-03T15:22:05.197Z,14.63
2018-03-03T15:24:31.598Z,21.17
2018-03-03T15:26:58.043Z,24.10
2018-03-03T15:29:24.406Z,17.23
2018-03-03T15:31:50.911Z,21.90
2018-03-03T15:34:17.340Z,23.27
2018-03-03T15:36:45.571Z,21.70
2018-03-03T15:39:11.995Z,15.07
2018-03-03T15:41:38.426Z,11.88
2018-03-03T15:44:04.846Z,16.27
2018-03-03T15:46:31.259Z,20.85
2018-03-03T15:48:57.693Z,17.67
2018-03-03T15:51:24.116Z,15.38
2018-03-03T15:53:50.537Z,19.33
2018-03-03T15:56:16.962Z,14.27
2018-03-03T15:58:43.459Z,21.10
2018-03-03T16:01:09.954Z,15.30
2018-03-03T16:03:37.055Z,15.60
2018-03-03T16:06:03.442Z,15.25
2018-03-03T16:08:30.594Z,14.82
2018-03-03T16:10:57.766Z,15.23
2018-03-03T16:13:24.164Z,13.68
2018-03-03T16:15:50.685Z,11.05
2018-03-03T16:18:17.241Z,18.90
2018-03-03T16:20:44.447Z,19.40
2018-03-03T16:23:10.882Z,17.70
2018-03-03T16:25:37.344Z,14.10
2018-03-03T16:28:03.699Z,10.35
2018-03-03T16:30:30.814Z,14.57
2018-03-03T16:32:57.241Z,13.70
2018-03-03T16:35:23.712Z,11.12
2018-03-03T16:37:50.885Z,10.15
2018-03-03T16:40:17.296Z,11.00
2018-03-03T16:42:43.708Z,4.95
2018-03-03T16:45:10.829Z,8.32
2018-03-03T16:47:37.242Z,9.85
2018-03-03T16:50:03.696Z,12.77
2018-03-03T16:52:30.083Z,15.18
2018-03-03T16:54:56.468Z,16.27
2018-03-03T16:57:22.901Z,9.90
2018-03-03T16:59:49.277Z,9.75
2018-03-03T17:02:15.828Z,14.68
2018-03-03T17:04:42.357Z,19.90
2018-03-03T17:07:08.783Z,19.85
2018-03-03T17:09:35.219Z,19.27
2018-03-03T17:12:01.613Z,21.05
2018-03-03T17:14:29.626Z,22.27
2018-03-03T17:16:57.005Z,15.07
2018-03-03T17:19:23.480Z,21.83
2018-03-03T17:21:49.900Z,21.25
2018-03-03T17:24:17.073Z,17.67
2018-03-03T17:26:43.534Z,16.60
2018-03-03T17:29:09.895Z,21.77
2018-03-03T17:31:37.103Z,12.95
2018-03-03T17:34:03.616Z,13.73
2018-03-03T17:36:30.018Z,14.27
2018-03-03T17:38:57.229Z,14.52
2018-03-03T17:41:23.667Z,16.23
2018-03-03T17:43:50.093Z,20.52
2018-03-03T17:46:16.505Z,12.65
2018-03-03T17:48:42.871Z,9.60
2018-03-03T17:51:09.308Z,15.98
2018-03-03T17:53:36.532Z,22.67
2018-03-03T17:56:02.976Z,24.17
2018-03-03T17:58:29.421Z,18.67
2018-03-03T18:00:55.925Z,29.40
2018-03-03T18:03:22.305Z,25.65
2018-03-03T18:05:49.690Z,33.42
2018-03-03T18:08:16.064Z,33.13
2018-03-03T18:10:42.541Z,26.73
2018-03-03T18:13:08.957Z,34.97
2018-03-03T18:15:36.081Z,28.00
2018-03-03T18:18:02.505Z,26.45
2018-03-03T18:20:29.560Z,26.98
2018-03-03T18:22:56.007Z,27.80
2018-03-03T18:25:23.138Z,28.95
2018-03-03T18:27:49.541Z,30.48
2018-03-03T18:30:15.934Z,42.13
2018-03-03T18:32:42.378Z,43.45
2018-03-03T18:35:08.811Z,36.50
2018-03-03T18:37:35.202Z,33.58
2018-03-03T18:40:01.647Z,33.10
2018-03-03T18:42:28.790Z,30.55
2018-03-03T18:44:55.966Z,34.50
2018-03-03T18:47:22.339Z,25.98
2018-03-03T18:49:48.884Z,35.72
2018-03-03T18:52:16.035Z,40.15
2018-03-03T18:54:42.454Z,33.45
2018-03-03T18:57:08.938Z,30.40
2018-03-03T18:59:35.369Z,39.30
2018-03-03T19:02:02.665Z,39.35
2018-03-03T19:04:29.076Z,35.10
2018-03-03T19:06:55.509Z,37.53
2018-03-03T19:09:21.912Z,38.40
2018-03-03T19:11:48.298Z,44.28
2018-03-03T19:14:14.775Z,33.42
2018-03-03T19:16:41.226Z,39.75
2018-03-03T19:19:07.597Z,38.83
2018-03-03T19:21:34.090Z,35.10
2018-03-03T19:24:00.505Z,33.33
2018-03-03T19:26:26.906Z,25.35
2018-03-03T19:28:54.118Z,30.90
2018-03-03T19:31:20.546Z,20.80
2018-03-03T19:33:47.081Z,26.10
2018-03-03T19:36:13.504Z,22.08
2018-03-03T19:38:40.802Z,28.25
2018-03-03T19:41:07.984Z,24.50
2018-03-03T19:43:34.453Z,21.90
2018-03-03T19:46:00.921Z,27.48
2018-03-03T19:48:27.367Z,24.98
2018-03-03T19:50:53.780Z,22.90
2018-03-03T19:53:20.915Z,29.42
2018-03-03T19:55:47.364Z,26.77
2018-03-03T19:58:13.779Z,24.42
2018-03-03T20:00:40.202Z,27.30
2018-03-03T20:03:06.677Z,29.92
2018-03-03T20:05:34.035Z,24.55
2018-03-03T20:08:00.435Z,34.05
2018-03-03T20:10:26.850Z,35.13
2018-03-03T20:12:53.268Z,45.12
2018-03-03T20:15:19.686Z,47.72
2018-03-03T20:17:46.104Z,38.17
2018-03-03T20:20:12.526Z,31.73
2018-03-03T20:22:38.932Z,29.12
2018-03-03T20:25:06.094Z,42.60
2018-03-03T20:27:32.496Z,38.63
2018-03-03T20:30:05.842Z,44.63
2018-03-03T20:32:32.259Z,42.15
2018-03-03T20:34:58.714Z,46.15
2018-03-03T20:37:25.738Z,49.17
2018-03-03T20:39:52.200Z,49.70
2018-03-03T20:42:18.606Z,55.12
2018-03-03T20:44:45.049Z,49.20
2018-03-03T20:47:11.447Z,54.20
2018-03-03T20:49:38.619Z,49.25
2018-03-03T20:52:05.015Z,51.37
2018-03-03T20:54:31.476Z,43.85
2018-03-03T20:56:57.880Z,49.00
2018-03-03T20:59:24.970Z,50.03
2018-03-03T21:01:51.355Z,53.65
2018-03-03T21:04:17.804Z,55.25
2018-03-03T21:06:44.977Z,60.30
2018-03-03T21:09:11.342Z,43.35
2018-03-03T21:11:37.801Z,52.00
2018-03-03T21:14:04.970Z,67.12
2018-03-03T21:16:31.403Z,72.80
2018-03-03T21:18:58.555Z,63.45
2018-03-03T21:21:24.972Z,58.45
2018-03-03T21:23:51.395Z,61.50
2018-03-03T21:26:18.510Z,62.38
2018-03-03T21:28:44.948Z,71.45
2018-03-03T21:31:12.155Z,63.17
2018-03-03T21:33:38.547Z,65.45
2018-03-03T21:36:04.959Z,59.20
2018-03-03T21:38:31.385Z,71.82
2018-03-03T21:40:57.823Z,84.18
2018-03-03T21:43:24.258Z,62.53
2018-03-03T21:45:50.671Z,65.20
2018-03-03T21:48:17.087Z,52.42
2018-03-03T21:50:43.493Z,54.58
2018-03-03T21:53:09.915Z,60.08
2018-03-03T21:55:37.048Z,59.17
2018-03-03T21:58:03.462Z,50.00
2018-03-03T22:00:29.896Z,57.17
2018-03-03T22:02:56.347Z,73.60
2018-03-03T22:05:23.528Z,58.10
2018-03-03T22:07:49.970Z,51.90
2018-03-03T22:10:16.428Z,74.40
2018-03-03T22:12:42.819Z,71.47
2018-03-03T22:15:09.214Z,63.03
2018-03-03T22:17:35.639Z,85.75
2018-03-03T22:20:02.869Z,79.53
2018-03-03T22:22:29.329Z,74.62
2018-03-03T22:24:55.707Z,74.07
2018-03-03T22:27:22.173Z,85.60
2018-03-03T22:29:48.605Z,81.10
2018-03-03T22:32:14.988Z,74.35
2018-03-03T22:34:41.388Z,91.00
2018-03-03T22:37:09.271Z,83.37
2018-03-03T22:39:35.756Z,67.37
2018-03-03T22:42:02.900Z,65.55
2018-03-03T22:44:29.331Z,56.83
2018-03-03T22:46:55.722Z,78.45
2018-03-03T22:49:22.128Z,79.65
2018-03-03T22:51:49.256Z,71.87
2018-03-03T22:54:15.710Z,85.38
2018-03-03T22:56:42.101Z,84.40
2018-03-03T22:59:08.467Z,89.03
2018-03-03T23:01:34.911Z,73.57
2018-03-03T23:04:02.101Z,87.37
2018-03-03T23:06:29.272Z,74.12
2018-03-03T23:08:55.677Z,66.28
2018-03-03T23:11:22.768Z,57.38
2018-03-03T23:13:49.144Z,65.78
2018-03-03T23:16:15.535Z,62.22
2018-03-03T23:18:41.928Z,78.93
2018-03-03T23:21:08.293Z,69.80
2018-03-03T23:23:34.719Z,66.25
2018-03-03T23:26:01.083Z,66.78
2018-03-03T23:28:27.482Z,83.85
2018-03-03T23:30:53.887Z,68.10
2018-03-03T23:33:20.274Z,70.37
2018-03-03T23:35:46.694Z,67.43
2018-03-03T23:38:13.862Z,59.70
2018-03-03T23:40:40.263Z,63.53
2018-03-03T23:43:07.444Z,54.22
2018-03-03T23:45:33.842Z,50.40
2018-03-03T23:48:00.222Z,48.60
2018-03-03T23:50:26.661Z,53.40
2018-03-03T23:52:53.047Z,46.37
2018-03-03T23:55:20.195Z,60.88
2018-03-03T23:57:47.311Z,45.95
